Time;durP1;ratioP1;P1;durP2;ratioP2;P2;SDS_P1;SDS_P2;PMS_P1;PMS_P2;Temp;Humidity;BMP_temperature;BMP_pressure;BME280_temperature;BME280_humidity;BME280_pressure;Samples;Min_cycle;Max_cycle;Signal;HPM_P1;HPM_P2
2023/12/10 00:01:49;;;;;;;18.90;3.58;;;;;;;;;;5051469;28;20486;-64
2023/12/10 00:04:14;;;;;;;15.93;4.18;;;;;;;;;;5059543;28;20029;-63
2023/12/10 00:06:39;;;;;;;11.48;3.67;;;;;;;;;;5056000;28;20033;-63
2023/12/10 00:09:05;;;;;;;11.63;3.63;;;;;;;;;;5055430;28;20021;-62
2023/12/10 00:11:30;;;;;;;16.10;4.05;;;;;;;;;;5061869;28;20766;-62
2023/12/10 00:13:55;;;;;;;10.93;3.50;;;;;;;;;;5060606;28;20425;-62
2023/12/10 00:16:21;;;;;;;15.60;4.25;;;;;;;;;;5054254;28;20013;-63
2023/12/10 00:18:46;;;;;;;13.40;3.45;;;;;;;;;;5054715;28;20021;-63
2023/12/10 00:21:14;;;;;;;13.23;3.10;;;;;;;;;;5054525;28;20112;-63
2023/12/10 00:23:40;;;;;;;11.98;2.65;;;;;;;;;;5054394;28;20440;-63
2023/12/10 00:26:05;;;;;;;14.98;4.03;;;;;;;;;;5054690;28;20107;-63
2023/12/10 00:28:30;;;;;;;14.65;3.03;;;;;;;;;;5054593;28;20103;-63
2023/12/10 00:30:55;;;;;;;10.00;2.70;;;;;;;;;;5054679;28;20027;-63
2023/12/10 00:33:20;;;;;;;14.85;3.58;;;;;;;;;;5054948;28;20116;-63
2023/12/10 00:35:46;;;;;;;11.75;3.33;;;;;;;;;;5054800;28;20082;-63
2023/12/10 00:38:11;;;;;;;14.80;3.47;;;;;;;;;;5054390;28;20475;-63
2023/12/10 00:40:36;;;;;;;11.80;3.20;;;;;;;;;;5054563;28;20634;-63
2023/12/10 00:43:01;;;;;;;10.75;3.67;;;;;;;;;;5054377;28;20255;-63
2023/12/10 00:45:27;;;;;;;14.13;3.50;;;;;;;;;;5053965;28;20036;-63
2023/12/10 00:47:52;;;;;;;14.52;3.33;;;;;;;;;;5054048;28;20025;-63
2023/12/10 00:50:18;;;;;;;13.98;3.20;;;;;;;;;;5053921;28;20044;-63
2023/12/10 00:52:43;;;;;;;13.63;3.55;;;;;;;;;;5054554;28;20403;-63
2023/12/10 00:55:09;;;;;;;10.75;3.15;;;;;;;;;;5063049;28;20471;-62
2023/12/10 00:57:34;;;;;;;12.25;3.47;;;;;;;;;;5053694;28;20028;-62
2023/12/10 00:59:59;;;;;;;11.88;3.05;;;;;;;;;;5053974;28;20033;-62
2023/12/10 01:02:25;;;;;;;11.13;3.40;;;;;;;;;;5057021;28;20037;-62
2023/12/10 01:04:51;;;;;;;18.00;3.90;;;;;;;;;;5063518;28;20079;-63
2023/12/10 01:07:17;;;;;;;10.07;3.40;;;;;;;;;;5053787;28;20162;-63
2023/12/10 01:09:42;;;;;;;10.25;2.58;;;;;;;;;;5060309;28;20116;-62
2023/12/10 01:12:07;;;;;;;14.52;2.92;;;;;;;;;;5054182;28;20032;-63
2023/12/10 01:14:33;;;;;;;12.50;3.15;;;;;;;;;;5016231;28;20033;-62
2023/12/10 01:16:58;;;;;;;10.70;3.13;;;;;;;;;;5042012;28;20390;-61
2023/12/10 01:19:23;;;;;;;13.00;2.92;;;;;;;;;;5070213;28;20017;-62
2023/12/10 01:21:49;;;;;;;9.73;2.33;;;;;;;;;;5054066;28;20025;-62
2023/12/10 01:24:18;;;;;;;9.60;2.47;;;;;;;;;;5066257;28;20037;-62
2023/12/10 01:26:43;;;;;;;10.00;2.42;;;;;;;;;;5063435;28;20033;-62
2023/12/10 01:29:08;;;;;;;12.23;3.20;;;;;;;;;;5054974;28;20117;-62
2023/12/10 01:31:34;;;;;;;11.07;2.78;;;;;;;;;;5053807;28;20043;-62
2023/12/10 01:33:59;;;;;;;7.90;2.47;;;;;;;;;;5052888;28;20463;-62
2023/12/10 01:36:24;;;;;;;7.13;2.17;;;;;;;;;;5053529;28;20105;-63
2023/12/10 01:38:50;;;;;;;12.63;2.50;;;;;;;;;;5052621;28;20029;-62
2023/12/10 01:41:16;;;;;;;10.18;2.60;;;;;;;;;;5065656;28;20012;-62
2023/12/10 01:43:42;;;;;;;9.13;2.80;;;;;;;;;;5053119;28;20027;-62
2023/12/10 01:46:07;;;;;;;8.13;2.13;;;;;;;;;;5053387;28;20033;-62
2023/12/10 01:48:33;;;;;;;14.43;3.83;;;;;;;;;;5053240;28;20494;-63
2023/12/10 01:50:59;;;;;;;10.18;2.47;;;;;;;;;;5052903;28;20072;-62
2023/12/10 01:53:24;;;;;;;7.63;2.05;;;;;;;;;;5062605;28;20052;-62
2023/12/10 01:55:50;;;;;;;9.38;2.67;;;;;;;;;;5055600;28;20387;-62
2023/12/10 01:58:15;;;;;;;7.80;2.90;;;;;;;;;;5073319;28;20023;-62
2023/12/10 02:00:40;;;;;;;7.28;2.72;;;;;;;;;;5069599;28;20360;-63
2023/12/10 02:03:06;;;;;;;7.05;2.47;;;;;;;;;;5053262;28;20116;-62
2023/12/10 02:05:31;;;;;;;6.65;2.10;;;;;;;;;;5045573;28;20543;-63
2023/12/10 02:07:57;;;;;;;10.52;2.50;;;;;;;;;;5013535;28;20934;-63
2023/12/10 02:10:22;;;;;;;5.07;1.83;;;;;;;;;;5014326;28;20087;-63
2023/12/10 02:12:48;;;;;;;9.07;2.15;;;;;;;;;;5012601;28;20032;-62
2023/12/10 02:15:19;;;;;;;11.43;2.20;;;;;;;;;;5013034;28;20051;-63
2023/12/10 02:17:45;;;;;;;9.07;2.35;;;;;;;;;;5014959;28;20036;-63
2023/12/10 02:20:13;;;;;;;8.13;2.30;;;;;;;;;;5019226;28;20025;-64
2023/12/10 02:23:01;;;;;;;10.55;2.60;;;;;;;;;;5032168;28;20021;-63
2023/12/10 02:25:33;;;;;;;11.20;2.25;;;;;;;;;;5017801;28;20079;-63
2023/12/10 02:27:59;;;;;;;9.18;2.35;;;;;;;;;;5013433;28;20783;-63
2023/12/10 02:30:25;;;;;;;12.15;3.13;;;;;;;;;;5011430;28;20025;-63
2023/12/10 02:32:50;;;;;;;11.32;2.25;;;;;;;;;;5027895;28;20067;-63
2023/12/10 02:35:15;;;;;;;10.85;2.67;;;;;;;;;;5052800;28;20028;-63
2023/12/10 02:37:40;;;;;;;7.22;2.50;;;;;;;;;;5052037;28;20036;-63
2023/12/10 02:40:06;;;;;;;13.95;2.88;;;;;;;;;;5051837;28;20511;-63
2023/12/10 02:42:31;;;;;;;6.45;2.50;;;;;;;;;;5051830;28;20032;-63
2023/12/10 02:44:56;;;;;;;17.70;3.65;;;;;;;;;;5052236;28;20027;-63
2023/12/10 02:47:22;;;;;;;10.17;2.77;;;;;;;;;;5052623;28;20040;-63
2023/12/10 02:49:47;;;;;;;15.13;3.25;;;;;;;;;;5066811;28;20800;-62
2023/12/10 02:52:12;;;;;;;16.10;2.85;;;;;;;;;;5062139;28;20063;-63
2023/12/10 02:54:37;;;;;;;10.07;2.83;;;;;;;;;;5064622;28;20024;-62
2023/12/10 02:57:03;;;;;;;9.10;2.50;;;;;;;;;;5052003;28;20267;-63
2023/12/10 02:59:28;;;;;;;13.80;2.03;;;;;;;;;;5040124;28;20024;-63
2023/12/10 03:01:53;;;;;;;9.75;2.47;;;;;;;;;;5060662;28;20131;-63
2023/12/10 03:04:19;;;;;;;12.82;3.53;;;;;;;;;;5051468;28;20103;-64
2023/12/10 03:06:44;;;;;;;22.40;3.33;;;;;;;;;;5052025;28;20025;-63
2023/12/10 03:09:09;;;;;;;8.30;2.13;;;;;;;;;;5052086;28;20365;-63
2023/12/10 03:11:34;;;;;;;16.80;2.87;;;;;;;;;;5051743;28;20657;-63
2023/12/10 03:13:59;;;;;;;11.93;2.53;;;;;;;;;;5052071;28;20279;-64
2023/12/10 03:16:25;;;;;;;8.30;2.13;;;;;;;;;;5051275;28;20124;-63
2023/12/10 03:18:50;;;;;;;14.50;2.88;;;;;;;;;;5052130;28;20013;-63
2023/12/10 03:21:15;;;;;;;13.93;2.88;;;;;;;;;;5053653;28;20179;-63
2023/12/10 03:23:40;;;;;;;8.98;2.45;;;;;;;;;;5052206;28;20013;-63
2023/12/10 03:26:06;;;;;;;8.43;2.60;;;;;;;;;;5051571;28;20082;-63
2023/12/10 03:28:31;;;;;;;11.50;2.50;;;;;;;;;;5052015;28;20033;-63
2023/12/10 03:30:56;;;;;;;13.15;2.60;;;;;;;;;;5051542;28;20044;-63
2023/12/10 03:33:21;;;;;;;13.77;2.95;;;;;;;;;;5035373;28;20991;-63
2023/12/10 03:35:47;;;;;;;10.00;2.80;;;;;;;;;;5014060;28;20329;-63
2023/12/10 03:38:12;;;;;;;15.70;2.80;;;;;;;;;;5051323;28;20028;-62
2023/12/10 03:40:37;;;;;;;11.32;2.42;;;;;;;;;;5051833;28;20024;-63
2023/12/10 03:43:03;;;;;;;12.57;2.85;;;;;;;;;;5051620;28;20043;-63
2023/12/10 03:45:28;;;;;;;11.88;2.05;;;;;;;;;;5050804;28;20120;-63
2023/12/10 03:47:53;;;;;;;12.05;2.72;;;;;;;;;;5051766;28;20060;-63
2023/12/10 03:50:18;;;;;;;12.32;3.00;;;;;;;;;;5053891;28;20028;-63
2023/12/10 03:52:44;;;;;;;11.25;2.45;;;;;;;;;;5051508;28;20163;-63
2023/12/10 03:55:09;;;;;;;12.02;2.33;;;;;;;;;;5056103;28;20032;-63
2023/12/10 03:57:34;;;;;;;7.07;2.58;;;;;;;;;;5062938;28;20482;-63
2023/12/10 04:00:00;;;;;;;8.85;2.10;;;;;;;;;;5055053;28;20036;-63
2023/12/10 04:02:25;;;;;;;11.10;3.10;;;;;;;;;;5054752;28;20028;-63
2023/12/10 04:04:51;;;;;;;14.75;2.95;;;;;;;;;;5055637;28;20467;-63
2023/12/10 04:07:16;;;;;;;11.68;3.08;;;;;;;;;;5051272;28;20426;-63
2023/12/10 04:09:41;;;;;;;10.27;2.55;;;;;;;;;;5051088;28;20021;-62
2023/12/10 04:12:07;;;;;;;14.45;2.65;;;;;;;;;;5056971;28;20028;-63
2023/12/10 04:14:32;;;;;;;15.85;3.05;;;;;;;;;;5048531;28;20079;-64
2023/12/10 04:16:57;;;;;;;11.93;2.78;;;;;;;;;;5031809;28;20226;-64
2023/12/10 04:19:22;;;;;;;7.55;2.35;;;;;;;;;;5029274;28;20021;-64
2023/12/10 04:21:48;;;;;;;8.80;2.33;;;;;;;;;;5014999;28;20028;-63
2023/12/10 04:24:15;;;;;;;13.45;2.70;;;;;;;;;;5037878;28;20379;-63
2023/12/10 04:26:40;;;;;;;12.35;3.10;;;;;;;;;;5053159;28;20017;-63
2023/12/10 04:29:05;;;;;;;13.57;2.45;;;;;;;;;;5054312;28;20028;-64
2023/12/10 04:31:31;;;;;;;9.70;2.63;;;;;;;;;;5050821;28;20443;-63
2023/12/10 04:33:56;;;;;;;10.40;2.22;;;;;;;;;;5051008;28;20029;-63
2023/12/10 04:36:21;;;;;;;7.32;2.25;;;;;;;;;;5050713;28;20021;-63
2023/12/10 04:38:46;;;;;;;9.98;2.20;;;;;;;;;;5050608;28;20033;-64
2023/12/10 04:41:12;;;;;;;6.25;1.70;;;;;;;;;;5022783;28;20128;-64
2023/12/10 04:43:38;;;;;;;12.60;2.78;;;;;;;;;;5018576;28;20890;-64
2023/12/10 04:46:03;;;;;;;10.73;2.75;;;;;;;;;;5012420;28;20017;-63
2023/12/10 04:48:28;;;;;;;8.45;2.33;;;;;;;;;;5010346;28;20021;-63
2023/12/10 04:50:54;;;;;;;7.63;2.28;;;;;;;;;;5036899;28;20021;-64
2023/12/10 04:53:19;;;;;;;12.57;1.90;;;;;;;;;;5050719;28;20482;-63
2023/12/10 04:55:44;;;;;;;11.68;2.38;;;;;;;;;;5053236;28;20481;-63
2023/12/10 04:58:09;;;;;;;9.93;1.77;;;;;;;;;;5054464;28;20025;-64
2023/12/10 05:00:35;;;;;;;9.95;1.70;;;;;;;;;;5053567;28;20044;-63
2023/12/10 05:03:00;;;;;;;6.43;2.28;;;;;;;;;;5060883;28;20020;-64
2023/12/10 05:05:26;;;;;;;8.65;1.48;;;;;;;;;;5054177;28;20092;-64
2023/12/10 05:07:51;;;;;;;5.18;2.20;;;;;;;;;;5053871;28;20028;-64
2023/12/10 05:10:16;;;;;;;14.15;2.90;;;;;;;;;;5061128;28;20107;-63
2023/12/10 05:12:41;;;;;;;11.32;2.17;;;;;;;;;;5057895;28;20037;-63
2023/12/10 05:15:07;;;;;;;10.50;2.60;;;;;;;;;;5054253;28;20379;-63
2023/12/10 05:17:33;;;;;;;9.85;2.95;;;;;;;;;;5065363;28;20317;-63
2023/12/10 05:19:58;;;;;;;9.02;2.25;;;;;;;;;;5053858;28;20031;-63
2023/12/10 05:22:23;;;;;;;9.95;3.33;;;;;;;;;;5053738;28;20490;-63
2023/12/10 05:24:48;;;;;;;7.53;2.08;;;;;;;;;;5054061;28;20017;-63
2023/12/10 05:27:13;;;;;;;11.52;2.05;;;;;;;;;;5053183;28;20036;-64
2023/12/10 05:29:39;;;;;;;13.02;2.80;;;;;;;;;;5053718;28;20032;-64
2023/12/10 05:32:04;;;;;;;5.90;1.90;;;;;;;;;;5053484;28;20033;-64
2023/12/10 05:34:30;;;;;;;8.85;2.05;;;;;;;;;;5053791;28;20021;-64
2023/12/10 05:36:55;;;;;;;12.77;3.08;;;;;;;;;;5053292;28;20040;-64
2023/12/10 05:39:20;;;;;;;8.57;2.30;;;;;;;;;;5059208;28;20029;-64
2023/12/10 05:41:46;;;;;;;9.77;1.77;;;;;;;;;;5053529;28;20222;-64
2023/12/10 05:44:11;;;;;;;15.40;2.83;;;;;;;;;;5053219;28;20471;-65
2023/12/10 05:46:36;;;;;;;12.27;1.83;;;;;;;;;;5053202;28;20047;-63
2023/12/10 05:49:01;;;;;;;7.88;2.00;;;;;;;;;;5053541;28;20346;-62
2023/12/10 05:51:27;;;;;;;12.90;2.55;;;;;;;;;;5053337;28;20394;-64
2023/12/10 05:53:52;;;;;;;7.18;2.35;;;;;;;;;;5053439;28;20028;-63
2023/12/10 05:56:17;;;;;;;9.95;1.90;;;;;;;;;;5053042;28;20031;-64
2023/12/10 05:58:43;;;;;;;7.82;1.95;;;;;;;;;;5052738;28;20059;-64
2023/12/10 06:01:08;;;;;;;14.02;2.53;;;;;;;;;;5060752;28;20497;-63
2023/12/10 06:03:33;;;;;;;10.73;2.08;;;;;;;;;;5064181;28;20387;-64
2023/12/10 06:05:58;;;;;;;13.52;2.95;;;;;;;;;;5062302;28;20029;-63
2023/12/10 06:08:24;;;;;;;9.13;2.75;;;;;;;;;;5052974;28;20025;-63
2023/12/10 06:10:49;;;;;;;11.45;2.45;;;;;;;;;;5052793;28;20064;-64
2023/12/10 06:13:14;;;;;;;8.40;2.22;;;;;;;;;;5052452;28;20421;-64
2023/12/10 06:15:39;;;;;;;13.48;2.70;;;;;;;;;;5052810;28;20040;-64
2023/12/10 06:18:05;;;;;;;12.20;2.60;;;;;;;;;;5052786;28;20424;-64
2023/12/10 06:20:30;;;;;;;13.50;2.85;;;;;;;;;;5053274;28;20283;-64
2023/12/10 06:22:55;;;;;;;6.13;2.13;;;;;;;;;;5053346;28;20062;-63
2023/12/10 06:25:21;;;;;;;10.95;2.08;;;;;;;;;;5052897;28;20411;-63
2023/12/10 06:27:46;;;;;;;9.50;2.08;;;;;;;;;;5052613;28;20111;-64
2023/12/10 06:30:11;;;;;;;10.18;3.13;;;;;;;;;;5052700;28;20024;-63
2023/12/10 06:32:37;;;;;;;9.23;2.95;;;;;;;;;;5063906;28;20060;-64
2023/12/10 06:35:02;;;;;;;13.60;2.47;;;;;;;;;;5054119;28;20040;-64
2023/12/10 06:37:27;;;;;;;7.10;2.58;;;;;;;;;;5052738;28;20121;-63
2023/12/10 06:39:54;;;;;;;10.80;2.35;;;;;;;;;;5052269;28;20095;-64
2023/12/10 06:42:19;;;;;;;11.40;2.83;;;;;;;;;;5051852;28;20025;-64
2023/12/10 06:44:44;;;;;;;10.85;2.85;;;;;;;;;;5052120;28;20035;-63
2023/12/10 06:47:10;;;;;;;14.35;2.50;;;;;;;;;;5036346;28;20059;-64
2023/12/10 06:49:36;;;;;;;8.88;2.67;;;;;;;;;;5013397;28;20024;-63
2023/12/10 06:52:01;;;;;;;12.35;3.03;;;;;;;;;;5048294;28;20380;-64
2023/12/10 06:54:26;;;;;;;10.48;3.05;;;;;;;;;;5052217;28;20122;-64
2023/12/10 06:56:52;;;;;;;8.77;2.13;;;;;;;;;;5063183;28;20032;-64
2023/12/10 06:59:17;;;;;;;8.45;2.33;;;;;;;;;;5052367;28;20362;-64
2023/12/10 07:01:43;;;;;;;13.90;2.83;;;;;;;;;;5053633;28;20582;-62
2023/12/10 07:04:08;;;;;;;11.85;2.08;;;;;;;;;;5060696;28;20675;-63
2023/12/10 07:06:34;;;;;;;8.70;2.30;;;;;;;;;;5051832;28;20024;-63
2023/12/10 07:08:59;;;;;;;8.65;2.35;;;;;;;;;;5052160;28;20104;-62
2023/12/10 07:11:24;;;;;;;13.68;2.53;;;;;;;;;;5051797;28;20020;-63
2023/12/10 07:13:50;;;;;;;9.30;2.65;;;;;;;;;;5051861;28;20071;-63
2023/12/10 07:16:16;;;;;;;12.77;2.65;;;;;;;;;;5051578;28;20472;-63
2023/12/10 07:18:41;;;;;;;12.18;2.92;;;;;;;;;;5051756;28;20033;-63
2023/12/10 07:21:06;;;;;;;11.13;2.75;;;;;;;;;;5051913;28;20021;-63
2023/12/10 07:23:32;;;;;;;7.45;2.28;;;;;;;;;;5051807;28;20032;-63
2023/12/10 07:25:58;;;;;;;19.25;3.00;;;;;;;;;;5051539;28;20032;-63
2023/12/10 07:28:23;;;;;;;6.13;2.17;;;;;;;;;;5054468;28;20017;-63
2023/12/10 07:30:48;;;;;;;10.38;2.33;;;;;;;;;;5052537;28;20025;-63
2023/12/10 07:33:13;;;;;;;12.52;2.60;;;;;;;;;;5053088;28;20033;-63
2023/12/10 07:35:38;;;;;;;12.40;3.33;;;;;;;;;;5051529;28;20410;-64
2023/12/10 07:38:04;;;;;;;11.98;2.90;;;;;;;;;;5051618;28;20267;-63
2023/12/10 07:40:29;;;;;;;10.02;2.47;;;;;;;;;;5051320;28;20013;-63
2023/12/10 07:42:55;;;;;;;9.13;3.05;;;;;;;;;;5051722;28;20071;-64
2023/12/10 07:45:20;;;;;;;10.80;2.50;;;;;;;;;;5051468;28;20040;-64
2023/12/10 07:47:46;;;;;;;10.82;2.10;;;;;;;;;;5051715;28;20037;-64
2023/12/10 07:50:11;;;;;;;9.65;2.45;;;;;;;;;;5052230;28;20031;-63
2023/12/10 07:52:37;;;;;;;9.30;2.80;;;;;;;;;;5051624;28;20047;-63
2023/12/10 07:55:02;;;;;;;10.88;2.33;;;;;;;;;;5054498;28;20104;-63
2023/12/10 07:57:28;;;;;;;10.77;2.88;;;;;;;;;;5060143;28;20021;-64
2023/12/10 07:59:53;;;;;;;10.68;3.17;;;;;;;;;;5051371;28;20037;-63
2023/12/10 08:02:18;;;;;;;10.80;2.17;;;;;;;;;;5051421;28;20020;-63
2023/12/10 08:04:44;;;;;;;11.15;2.60;;;;;;;;;;5051107;28;20483;-64
2023/12/10 08:07:09;;;;;;;8.45;2.40;;;;;;;;;;5054177;28;20085;-64
2023/12/10 08:09:35;;;;;;;10.18;2.38;;;;;;;;;;5048713;28;20787;-64
2023/12/10 08:12:00;;;;;;;11.32;2.58;;;;;;;;;;5053106;28;20060;-64
2023/12/10 08:14:27;;;;;;;6.40;1.85;;;;;;;;;;5050374;28;20114;-64
2023/12/10 08:16:52;;;;;;;10.10;2.22;;;;;;;;;;5043340;28;20029;-62
2023/12/10 08:19:18;;;;;;;9.63;2.58;;;;;;;;;;5048271;28;20033;-63
2023/12/10 08:21:43;;;;;;;12.25;2.30;;;;;;;;;;5041618;28;20395;-63
2023/12/10 08:24:08;;;;;;;13.70;2.10;;;;;;;;;;5032186;28;20029;-63
2023/12/10 08:26:34;;;;;;;10.00;3.15;;;;;;;;;;5011252;28;20021;-62
2023/12/10 08:28:59;;;;;;;10.43;2.40;;;;;;;;;;5013930;28;20867;-63
2023/12/10 08:31:25;;;;;;;12.65;2.58;;;;;;;;;;5025064;28;20031;-62
2023/12/10 08:33:50;;;;;;;7.60;3.10;;;;;;;;;;5014009;28;20028;-62
2023/12/10 08:36:16;;;;;;;11.02;2.83;;;;;;;;;;5016105;28;20028;-62
2023/12/10 08:38:41;;;;;;;9.93;2.25;;;;;;;;;;5026128;28;20032;-63
2023/12/10 08:41:06;;;;;;;11.75;2.67;;;;;;;;;;5043903;28;20037;-62
2023/12/10 08:43:32;;;;;;;13.07;2.17;;;;;;;;;;5054147;28;20551;-62
2023/12/10 08:45:58;;;;;;;15.40;3.03;;;;;;;;;;5054369;28;20514;-63
2023/12/10 08:48:23;;;;;;;8.23;2.33;;;;;;;;;;5054265;28;20103;-62
2023/12/10 08:50:48;;;;;;;15.15;3.58;;;;;;;;;;5065793;28;20402;-62
2023/12/10 08:53:14;;;;;;;12.55;2.13;;;;;;;;;;5054739;28;20033;-62
2023/12/10 08:55:39;;;;;;;13.65;2.80;;;;;;;;;;5054224;28;20494;-63
2023/12/10 08:58:04;;;;;;;18.75;3.40;;;;;;;;;;5066995;28;20120;-62
2023/12/10 09:00:30;;;;;;;13.18;3.10;;;;;;;;;;5053797;28;20024;-62
2023/12/10 09:02:55;;;;;;;11.70;3.95;;;;;;;;;;5055825;28;20506;-62
2023/12/10 09:05:21;;;;;;;12.47;3.67;;;;;;;;;;5054155;28;20095;-62
2023/12/10 09:07:46;;;;;;;11.00;3.08;;;;;;;;;;5053568;28;20386;-62
2023/12/10 09:10:11;;;;;;;13.35;3.13;;;;;;;;;;5053262;28;20041;-62
2023/12/10 09:12:36;;;;;;;15.52;2.78;;;;;;;;;;5053508;28;20033;-62
2023/12/10 09:15:02;;;;;;;12.95;2.53;;;;;;;;;;5053872;28;20021;-63
2023/12/10 09:17:28;;;;;;;14.73;2.92;;;;;;;;;;5060103;28;20025;-63
2023/12/10 09:19:53;;;;;;;18.70;3.10;;;;;;;;;;5053865;28;20032;-63
2023/12/10 09:22:18;;;;;;;17.13;3.55;;;;;;;;;;5052903;28;20025;-63
2023/12/10 09:24:44;;;;;;;8.85;2.90;;;;;;;;;;5053641;28;20080;-63
2023/12/10 09:27:09;;;;;;;7.72;2.63;;;;;;;;;;5054075;28;20092;-63
2023/12/10 09:29:38;;;;;;;11.23;3.20;;;;;;;;;;5053090;28;20040;-62
2023/12/10 09:32:04;;;;;;;8.43;2.63;;;;;;;;;;5062878;28;20153;-63
2023/12/10 09:34:30;;;;;;;13.02;3.15;;;;;;;;;;5053621;28;20025;-62
2023/12/10 09:36:55;;;;;;;10.45;2.60;;;;;;;;;;5059314;28;20032;-62
2023/12/10 09:39:20;;;;;;;10.70;2.70;;;;;;;;;;5053000;28;20028;-63
2023/12/10 09:41:45;;;;;;;15.45;3.17;;;;;;;;;;5052655;28;20024;-63
2023/12/10 09:44:10;;;;;;;12.77;2.88;;;;;;;;;;5053475;28;20638;-63
2023/12/10 09:46:36;;;;;;;12.75;2.85;;;;;;;;;;5059723;28;20028;-62
2023/12/10 09:49:01;;;;;;;12.32;3.58;;;;;;;;;;5053193;28;20107;-62
2023/12/10 09:51:27;;;;;;;12.27;3.15;;;;;;;;;;5052831;28;20116;-62
2023/12/10 09:53:52;;;;;;;12.05;2.80;;;;;;;;;;5034365;28;20825;-63
2023/12/10 09:56:18;;;;;;;9.93;2.28;;;;;;;;;;5014849;28;20018;-63
2023/12/10 09:58:43;;;;;;;17.00;3.67;;;;;;;;;;5019414;28;20081;-62
2023/12/10 10:01:08;;;;;;;13.98;3.40;;;;;;;;;;5014983;28;20029;-63
2023/12/10 10:03:37;;;;;;;17.88;3.95;;;;;;;;;;5027563;28;20017;-62
2023/12/10 10:06:02;;;;;;;11.40;3.45;;;;;;;;;;5057681;28;20024;-62
2023/12/10 10:08:28;;;;;;;13.48;3.00;;;;;;;;;;5066782;28;20067;-62
2023/12/10 10:10:53;;;;;;;13.48;2.97;;;;;;;;;;5046884;28;20017;-62
2023/12/10 10:13:18;;;;;;;13.60;3.63;;;;;;;;;;5055884;28;20048;-62
2023/12/10 10:15:44;;;;;;;18.15;4.07;;;;;;;;;;5052848;28;20045;-62
2023/12/10 10:18:10;;;;;;;15.90;4.22;;;;;;;;;;5056922;28;20032;-62
2023/12/10 10:20:38;;;;;;;15.90;3.10;;;;;;;;;;5062120;28;20032;-63
2023/12/10 10:23:04;;;;;;;12.30;3.47;;;;;;;;;;5067116;28;20025;-63
2023/12/10 10:25:30;;;;;;;11.48;4.47;;;;;;;;;;5052320;28;20036;-63
2023/12/10 10:27:55;;;;;;;11.93;3.40;;;;;;;;;;5052612;28;20375;-62
2023/12/10 10:30:20;;;;;;;13.32;3.13;;;;;;;;;;5052639;28;20037;-63
2023/12/10 10:32:46;;;;;;;11.90;3.35;;;;;;;;;;5062365;28;20036;-62
2023/12/10 10:35:12;;;;;;;15.30;3.35;;;;;;;;;;5052055;28;20025;-63
2023/12/10 10:37:37;;;;;;;11.52;3.83;;;;;;;;;;5055073;28;20107;-64
2023/12/10 10:40:03;;;;;;;15.63;3.95;;;;;;;;;;5022387;28;20016;-63
2023/12/10 10:42:28;;;;;;;15.05;3.60;;;;;;;;;;5024157;28;20132;-61
2023/12/10 10:44:54;;;;;;;13.20;4.28;;;;;;;;;;5019827;28;20032;-63
2023/12/10 10:47:20;;;;;;;15.60;4.03;;;;;;;;;;5018457;28;20032;-64
2023/12/10 10:49:56;;;;;;;14.93;3.22;;;;;;;;;;5014154;28;20086;-63
2023/12/10 10:52:23;;;;;;;12.43;3.63;;;;;;;;;;5019523;28;20045;-62
2023/12/10 10:54:49;;;;;;;13.60;3.53;;;;;;;;;;5021690;28;20071;-66
2023/12/10 10:57:28;;;;;;;14.13;3.55;;;;;;;;;;5014883;28;20906;-62
2023/12/10 10:59:53;;;;;;;11.90;3.95;;;;;;;;;;5018171;28;20035;-63
2023/12/10 11:02:18;;;;;;;10.55;3.38;;;;;;;;;;5022274;28;20036;-62
2023/12/10 11:04:45;;;;;;;14.45;3.72;;;;;;;;;;5025476;28;20025;-63
2023/12/10 11:07:10;;;;;;;16.48;3.58;;;;;;;;;;5018361;28;20373;-64
2023/12/10 11:09:55;;;;;;;12.50;4.00;;;;;;;;;;5018754;28;20530;-64
2023/12/10 11:12:39;;;;;;;18.85;3.63;;;;;;;;;;5012410;28;20302;-62
2023/12/10 11:15:05;;;;;;;13.57;3.20;;;;;;;;;;5015243;28;20043;-62
2023/12/10 11:17:30;;;;;;;15.38;4.20;;;;;;;;;;5013411;28;20275;-62
2023/12/10 11:19:57;;;;;;;11.20;3.08;;;;;;;;;;5016461;28;20886;-62
2023/12/10 11:22:22;;;;;;;13.25;3.58;;;;;;;;;;5023498;28;20029;-63
2023/12/10 11:24:49;;;;;;;17.73;4.80;;;;;;;;;;5015204;28;20027;-63
2023/12/10 11:27:14;;;;;;;15.52;3.28;;;;;;;;;;5022208;28;20017;-62
2023/12/10 11:29:39;;;;;;;12.48;3.15;;;;;;;;;;5020911;28;20146;-62
2023/12/10 11:32:05;;;;;;;11.13;3.17;;;;;;;;;;5015874;28;20807;-62
2023/12/10 11:34:31;;;;;;;18.40;4.43;;;;;;;;;;5013928;28;20281;-62
2023/12/10 11:36:56;;;;;;;14.43;3.22;;;;;;;;;;5022521;28;20128;-62
2023/12/10 11:39:21;;;;;;;12.07;3.20;;;;;;;;;;5019801;28;20984;-62
2023/12/10 11:41:47;;;;;;;14.82;3.95;;;;;;;;;;5016022;28;20071;-62
2023/12/10 11:44:12;;;;;;;20.02;3.95;;;;;;;;;;5012749;28;20124;-63
2023/12/10 11:46:38;;;;;;;10.20;3.17;;;;;;;;;;5011439;28;20039;-63
2023/12/10 11:49:03;;;;;;;14.07;3.45;;;;;;;;;;5013555;28;20921;-62
2023/12/10 11:51:29;;;;;;;15.55;3.70;;;;;;;;;;5013941;28;20927;-62
2023/12/10 11:53:55;;;;;;;19.08;4.03;;;;;;;;;;5019758;28;20021;-61
2023/12/10 11:56:21;;;;;;;14.55;3.60;;;;;;;;;;5017778;28;20249;-61
2023/12/10 11:58:46;;;;;;;13.25;3.53;;;;;;;;;;5015232;28;20842;-60
2023/12/10 12:01:12;;;;;;;14.93;4.15;;;;;;;;;;5013415;28;20081;-60
2023/12/10 12:03:37;;;;;;;18.00;3.80;;;;;;;;;;5013094;28;20128;-61
2023/12/10 12:06:04;;;;;;;14.60;3.40;;;;;;;;;;5019545;28;20131;-61
2023/12/10 12:08:29;;;;;;;15.63;3.92;;;;;;;;;;5022016;28;20024;-63
2023/12/10 12:10:56;;;;;;;15.52;3.30;;;;;;;;;;5047862;28;20038;-63
2023/12/10 12:13:22;;;;;;;17.15;3.50;;;;;;;;;;5017381;28;20037;-64
2023/12/10 12:15:48;;;;;;;19.13;3.85;;;;;;;;;;5024409;28;20048;-64
2023/12/10 12:18:13;;;;;;;17.98;4.13;;;;;;;;;;5016388;28;20101;-67
2023/12/10 12:20:39;;;;;;;12.60;3.22;;;;;;;;;;5017558;28;20958;-63
2023/12/10 12:23:04;;;;;;;7.55;2.85;;;;;;;;;;5026619;28;20939;-62
2023/12/10 12:25:34;;;;;;;14.40;4.25;;;;;;;;;;5018155;28;20023;-63
2023/12/10 12:27:59;;;;;;;15.75;3.47;;;;;;;;;;5038279;28;20067;-62
2023/12/10 12:30:26;;;;;;;17.55;3.88;;;;;;;;;;5026661;28;20124;-63
2023/12/10 12:32:52;;;;;;;17.83;3.85;;;;;;;;;;5020876;28;20033;-62
2023/12/10 12:35:17;;;;;;;18.10;4.53;;;;;;;;;;5021414;28;20053;-62
2023/12/10 12:37:43;;;;;;;9.07;3.15;;;;;;;;;;5022698;28;20110;-62
2023/12/10 12:40:08;;;;;;;12.68;3.38;;;;;;;;;;5017934;28;20029;-62
2023/12/10 12:42:34;;;;;;;9.65;2.70;;;;;;;;;;5022197;28;20969;-62
2023/12/10 12:44:59;;;;;;;15.50;3.40;;;;;;;;;;5019994;28;20082;-62
2023/12/10 12:47:24;;;;;;;10.85;3.75;;;;;;;;;;5002234;28;20033;-62
2023/12/10 12:49:49;;;;;;;15.98;3.30;;;;;;;;;;5036322;28;20049;-62
2023/12/10 12:52:15;;;;;;;12.70;3.75;;;;;;;;;;5015943;28;20114;-61
2023/12/10 12:54:40;;;;;;;12.57;3.47;;;;;;;;;;5018804;28;20013;-62
2023/12/10 12:57:05;;;;;;;15.65;3.15;;;;;;;;;;5018244;28;20013;-62
2023/12/10 12:59:31;;;;;;;14.40;4.20;;;;;;;;;;5022445;28;20020;-62
2023/12/10 13:01:56;;;;;;;12.85;3.00;;;;;;;;;;5006681;28;20912;-62
2023/12/10 13:04:21;;;;;;;13.38;2.92;;;;;;;;;;5018254;28;20040;-62
2023/12/10 13:06:46;;;;;;;13.93;3.60;;;;;;;;;;5024302;28;20030;-62
2023/12/10 13:09:13;;;;;;;11.68;2.80;;;;;;;;;;5022789;28;20040;-58
2023/12/10 13:11:38;;;;;;;10.73;2.83;;;;;;;;;;5020399;28;20029;-60
2023/12/10 13:14:04;;;;;;;9.20;3.00;;;;;;;;;;5039463;28;20031;-63
2023/12/10 13:16:30;;;;;;;14.43;3.50;;;;;;;;;;5037786;28;20040;-66
2023/12/10 13:18:55;;;;;;;12.90;3.67;;;;;;;;;;5033242;28;20036;-60
2023/12/10 13:21:20;;;;;;;8.82;2.60;;;;;;;;;;5028883;28;20040;-59
2023/12/10 13:23:46;;;;;;;11.43;3.05;;;;;;;;;;5030312;28;20128;-59
2023/12/10 13:26:11;;;;;;;12.20;2.78;;;;;;;;;;5044792;28;20024;-65
2023/12/10 13:28:36;;;;;;;11.40;2.53;;;;;;;;;;5016746;28;20048;-60
2023/12/10 13:31:01;;;;;;;12.18;2.83;;;;;;;;;;5026450;28;20056;-61
2023/12/10 13:33:27;;;;;;;13.93;3.58;;;;;;;;;;5044393;28;20809;-61
2023/12/10 13:35:52;;;;;;;10.70;2.75;;;;;;;;;;5016616;28;20025;-61
2023/12/10 13:38:18;;;;;;;13.07;4.00;;;;;;;;;;5026309;28;20096;-61
2023/12/10 13:40:43;;;;;;;17.00;2.92;;;;;;;;;;5027258;28;20922;-61
2023/12/10 13:43:09;;;;;;;10.93;3.17;;;;;;;;;;5027892;28;20119;-61
2023/12/10 13:45:35;;;;;;;11.07;3.42;;;;;;;;;;5026896;28;20027;-62
2023/12/10 13:48:01;;;;;;;10.50;2.78;;;;;;;;;;5026385;28;20032;-60
2023/12/10 13:50:26;;;;;;;11.27;3.17;;;;;;;;;;5034837;28;20798;-59
2023/12/10 13:52:52;;;;;;;14.77;3.30;;;;;;;;;;5022426;28;20033;-59
2023/12/10 13:55:17;;;;;;;10.15;2.88;;;;;;;;;;5036392;28;20031;-61
2023/12/10 13:57:42;;;;;;;13.63;3.05;;;;;;;;;;5024946;28;20020;-61
2023/12/10 14:00:11;;;;;;;13.35;2.70;;;;;;;;;;5016528;28;20028;-62
2023/12/10 14:02:36;;;;;;;11.40;2.47;;;;;;;;;;5036431;28;20107;-62
2023/12/10 14:05:03;;;;;;;13.40;3.05;;;;;;;;;;5020795;28;20037;-62
2023/12/10 14:07:29;;;;;;;10.10;3.15;;;;;;;;;;5020074;28;20025;-62
2023/12/10 14:09:55;;;;;;;11.88;2.55;;;;;;;;;;5031838;28;20021;-62
2023/12/10 14:12:20;;;;;;;9.90;2.70;;;;;;;;;;5031713;28;20040;-62
2023/12/10 14:14:45;;;;;;;12.48;2.53;;;;;;;;;;5027779;28;20029;-62
2023/12/10 14:17:10;;;;;;;14.32;3.65;;;;;;;;;;5030705;28;20032;-62
2023/12/10 14:19:36;;;;;;;7.25;2.50;;;;;;;;;;5037523;28;20919;-62
2023/12/10 14:22:01;;;;;;;14.15;2.90;;;;;;;;;;5038550;28;20016;-62
2023/12/10 14:24:26;;;;;;;9.60;2.17;;;;;;;;;;5029271;28;20907;-62